Flight Track Log - Related Links

Times and Time Zones

All times are in EDT time to prevent confusion due to time zone crossing. See the N560DP flight status page for this flight to view local times or setup timezone preferences in your user account.

Time Position Orientation Groundspeed Altitude Reporting Facility
EDT Latitude Longitude Course Direction KTS MPH feet Rate Location/Type
Wed 09:01:51 PM 44.0078 -103.0317 153° Southeast 179 206 4,900  Level Denver Center
Wed 09:02:51 PM 43.9672 -102.9725 134° Southeast 215 247 7,500 2,380 Climbing Denver Center
Wed 09:03:52 PM 43.9417 -102.8856 112° Southeast 241 277 9,700 1,804 Climbing Denver Center
Wed 09:05:14 PM 43.9069 -102.7758 114° Southeast 251 289 11,800 1,625 Climbing Denver Center
Wed 09:06:16 PM 43.8728 -102.6592 112° Southeast 281 323 13,600 1,742 Climbing Denver Center
Wed 09:07:18 PM 43.8289 -102.5267 115° Southeast 319 367 15,400 1,694 Climbing Denver Center
Wed 09:08:20 PM 43.7911 -102.4097 114° Southeast 337 388 17,100 1,742 Climbing Denver Center
Wed 09:09:22 PM 43.7433 -102.2686 115° Southeast 352 405 19,000 1,742 Climbing Denver Center
Wed 09:10:24 PM 43.7033 -102.1461 114° Southeast 360 414 20,700 1,694 Climbing Denver Center
Wed 09:11:26 PM 43.6628 -102.0225 114° Southeast 363 418 22,500 1,790 Climbing Denver Center
Wed 09:12:28 PM 43.6150 -101.8706 113° Southeast 363 418 24,400 1,659 Climbing Denver Center
Wed 09:13:29 PM 43.5736 -101.7417 114° Southeast 367 422 25,900 1,317 Climbing Denver Center
Wed 09:14:31 PM 43.5286 -101.6083 115° Southeast 383 441 27,100 1,258 Climbing Denver Center
Wed 09:15:33 PM 43.4842 -101.4739 114° Southeast 386 444 28,500 1,403 Climbing Denver Center
Wed 09:16:35 PM 43.4394 -101.3381 114° Southeast 390 449 30,000 1,403 Climbing Denver Center
Wed 09:17:37 PM 43.3947 -101.2039 115° Southeast 389 448 31,400 1,500 Climbing Denver Center
Wed 09:18:39 PM 43.3406 -101.0419 115° Southeast 390 449 33,100 1,403 Climbing Denver Center
Wed 09:19:41 PM 43.2956 -100.9078 115° Southeast 389 448 34,300 919 Climbing Denver Center
Wed 09:20:43 PM 43.2483 -100.7714 115° Southeast 395 455 35,000 774 Climbing Denver Center
Wed 09:21:45 PM 43.2000 -100.6269 115° Southeast 415 478 35,900 1,081 Climbing Denver Center
Wed 09:22:34 PM 43.1603 -100.5147 116° Southeast 416 479 37,000 1,351 Climbing Minneapolis Center
Wed 09:23:36 PM 43.1131 -100.3731 115° Southeast 413 475 38,400 1,268 Climbing Minneapolis Center
Wed 09:24:37 PM 43.0664 -100.2403 116° Southeast 399 459 39,600 1,073 Climbing Minneapolis Center
Wed 09:25:39 PM 43.0100 -100.0811 116° Southeast 391 450 40,600 677 Climbing Minneapolis Center
Wed 09:26:41 PM 42.9622 -99.9456 116° Southeast 393 452 41,000 195 Climbing Minneapolis Center
Wed 09:27:42 PM 42.9119 -99.8039 116° Southeast 405 466 41,000  Level Minneapolis Center
Wed 09:28:44 PM 42.8567 -99.6392 115° Southeast 432 497 41,000  Level Minneapolis Center
Wed 09:29:45 PM 42.8019 -99.4850 116° Southeast 448 516 41,000  Level Minneapolis Center
Wed 09:30:47 PM 42.7467 -99.3317 116° Southeast 451 519 41,000  Level Minneapolis Center
Wed 09:31:48 PM 42.6908 -99.1756 116° Southeast 456 525 41,000  Level Minneapolis Center
Wed 09:32:50 PM 42.6356 -99.0200 116° Southeast 457 526 41,000  Level Minneapolis Center
Wed 09:33:51 PM 42.5908 -98.8975 116° Southeast 454 522 41,000  Level Minneapolis Center
Wed 09:34:53 PM 42.5233 -98.7108 116° Southeast 458 527 41,000  Level Minneapolis Center
Wed 09:35:54 PM 42.4669 -98.5583 117° Southeast 454 522 41,000  Level Minneapolis Center
Wed 09:36:56 PM 42.4089 -98.4025 117° Southeast 459 528 41,000  Level Minneapolis Center
Wed 09:37:57 PM 42.3639 -98.2792 116° Southeast 458 527 41,000  Level Minneapolis Center
Wed 09:38:58 PM 42.2825 -98.0622 117° Southeast 461 531 41,000  Level Minneapolis Center
Wed 09:40:00 PM 42.2256 -97.9081 116° Southeast 459 528 41,000  Level Minneapolis Center
Wed 09:41:01 PM 42.1708 -97.7653 117° Southeast 459 528 41,000  Level Minneapolis Center
Wed 09:42:02 PM 42.1136 -97.6111 117° Southeast 460 529 41,000  Level Minneapolis Center
Wed 09:43:04 PM 42.0553 -97.4586 117° Southeast 460 529 41,000  Level Minneapolis Center
Wed 09:44:05 PM 41.9964 -97.3058 117° Southeast 459 528 41,000  Level Minneapolis Center
Wed 09:45:06 PM 41.9369 -97.1539 118° Southeast 460 529 41,000  Level Minneapolis Center
Wed 09:46:08 PM 41.8789 -97.0019 117° Southeast 458 527 41,000  Level Minneapolis Center
Wed 09:47:09 PM 41.8072 -96.8189 118° Southeast 461 531 41,000  Level Minneapolis Center
Wed 09:48:22 PM 41.7478 -96.6692 118° Southeast 458 527 41,000  Level Minneapolis Center
Wed 09:49:24 PM 41.6767 -96.4883 118° Southeast 457 526 41,000  Level Minneapolis Center
Wed 09:50:25 PM 41.6242 -96.3536 117° Southeast 459 528 41,000  Level Minneapolis Center
Wed 09:51:26 PM 41.5494 -96.1719 119° Southeast 463 533 41,000  Level Minneapolis Center
Wed 09:52:28 PM 41.4881 -96.0231 119° Southeast 460 529 41,000  Level Minneapolis Center
Wed 09:53:29 PM 41.4408 -95.9031 118° Southeast 458 527 41,000  Level Minneapolis Center
Wed 09:54:30 PM 41.3667 -95.7256 119° Southeast 457 526 41,000  Level Minneapolis Center
Wed 09:55:31 PM 41.3106 -95.5778 117° Southeast 457 526 41,000  Level Minneapolis Center
Wed 09:56:32 PM 41.2492 -95.4292 119° Southeast 457 526 41,000  Level Minneapolis Center
Wed 09:57:34 PM 41.1883 -95.2803 118° Southeast 458 527 41,000  Level Minneapolis Center
Wed 09:58:35 PM 41.1281 -95.1311 118° Southeast 460 529 41,000  Level Minneapolis Center
Wed 09:59:36 PM 41.0661 -94.9822 119° Southeast 460 529 41,000  Level Minneapolis Center
Wed 10:00:37 PM 41.0042 -94.8350 119° Southeast 459 528 41,000  Level Minneapolis Center
Wed 10:01:38 PM 40.9542 -94.7167 119° Southeast 458 527 41,000  Level Minneapolis Center
Wed 10:02:40 PM 40.8792 -94.5372 119° Southeast 460 529 41,000  Level Minneapolis Center
Wed 10:03:41 PM 40.8031 -94.3614 120° Southeast 464 534 41,000  Level Minneapolis Center
Wed 10:04:42 PM 40.7400 -94.2153 120° Southeast 463 533 41,000  Level Minneapolis Center
Wed 10:05:43 PM 40.6767 -94.0672 119° Southeast 462 532 41,000  Level Minneapolis Center
Wed 10:06:44 PM 40.6156 -93.9228 119° Southeast 463 533 41,000  Level Minneapolis Center
Wed 10:07:45 PM 40.5536 -93.7775 119° Southeast 462 532 41,000  Level Minneapolis Center
Wed 10:08:58 PM 40.4894 -93.6328 120° Southeast 462 532 41,000  Level Minneapolis Center
Wed 10:10:00 PM 40.4139 -93.4611 120° Southeast 459 528 41,000  Level Minneapolis Center
Wed 10:11:01 PM 40.3389 -93.2900 120° Southeast 458 527 41,000  Level Minneapolis Center
Wed 10:12:02 PM 40.2758 -93.1472 120° Southeast 458 527 41,000  Level Minneapolis Center
Wed 10:13:03 PM 40.2131 -93.0058 120° Southeast 457 526 41,000  Level Minneapolis Center
Wed 10:13:33 PM 40.1850 -92.9425 120° Southeast 457 526 41,000  Level Kansas City Center
Wed 10:14:34 PM 40.1131 -92.7817 120° Southeast 458 527 41,000  Level Kansas City Center
Wed 10:15:35 PM 40.0500 -92.6389 120° Southeast 458 527 41,000  Level Kansas City Center
Wed 10:16:37 PM 39.9875 -92.4978 120° Southeast 460 529 41,000  Level Kansas City Center
Wed 10:17:38 PM 39.9239 -92.3567 120° Southeast 460 529 41,000  Level Kansas City Center
Wed 10:18:39 PM 39.8592 -92.2167 121° Southeast 458 527 41,000  Level Kansas City Center
Wed 10:19:41 PM 39.7956 -92.0761 120° Southeast 457 526 41,000  Level Kansas City Center
Wed 10:20:42 PM 39.7169 -91.9069 121° Southeast 460 529 41,000  Level Kansas City Center
Wed 10:21:43 PM 39.6517 -91.7672 121° Southeast 459 528 41,000  Level Kansas City Center
Wed 10:22:44 PM 39.5872 -91.6250 120° Southeast 461 531 41,000  Level Kansas City Center
Wed 10:23:46 PM 39.5217 -91.4833 121° Southeast 463 533 41,000  Level Kansas City Center
Wed 10:24:47 PM 39.4519 -91.3361 121° Southeast 458 527 41,000  Level Kansas City Center
Wed 10:25:48 PM 39.3853 -91.1933 121° Southeast 462 532 41,000  Level Kansas City Center
Wed 10:26:49 PM 39.3189 -91.0503 121° Southeast 464 534 41,000  Level Kansas City Center
Wed 10:27:50 PM 39.2525 -90.9106 122° Southeast 459 528 41,000  Level Kansas City Center
Wed 10:28:52 PM 39.1844 -90.7686 122° Southeast 462 532 41,000  Level Kansas City Center
Wed 10:29:53 PM 39.1175 -90.6275 121° Southeast 461 531 41,000  Level Kansas City Center
Wed 10:30:54 PM 39.0497 -90.4853 122° Southeast 463 533 41,000  Level Kansas City Center
Wed 10:31:55 PM 38.9814 -90.3419 121° Southeast 465 535 41,000  Level Kansas City Center
Wed 10:32:56 PM 38.8989 -90.1742 122° Southeast 466 536 41,000  Level Kansas City Center
Wed 10:33:57 PM 38.8294 -90.0322 122° Southeast 468 539 41,000  Level Kansas City Center
Wed 10:34:58 PM 38.7592 -89.8828 121° Southeast 469 540 41,000  Level Kansas City Center
Wed 10:35:59 PM 38.6900 -89.7428 122° Southeast 467 537 41,000  Level Kansas City Center
Wed 10:37:00 PM 38.6206 -89.5994 122° Southeast 461 531 41,000  Level Kansas City Center
Wed 10:38:01 PM 38.5500 -89.4625 123° Southeast 461 531 41,000  Level Kansas City Center
Wed 10:39:03 PM 38.4814 -89.3256 123° Southeast 459 528 41,000  Level Kansas City Center
Wed 10:40:04 PM 38.4125 -89.1886 123° Southeast 459 528 41,000  Level Kansas City Center
Wed 10:41:05 PM 38.3461 -89.0569 123° Southeast 457 526 41,000 -98 Level Kansas City Center
Wed 10:42:06 PM 38.2769 -88.9203 123° Southeast 460 529 40,800 -787 Descending Kansas City Center
Wed 10:43:07 PM 38.2089 -88.7853 123° Southeast 457 526 39,400 -1,672 Descending Kansas City Center
Wed 10:44:08 PM 38.1383 -88.6500 124° Southeast 454 522 37,400 -1,967 Descending Kansas City Center
Wed 10:45:09 PM 38.0714 -88.5169 123° Southeast 451 519 35,400 -1,918 Descending Kansas City Center
Wed 10:46:10 PM 38.0036 -88.3836 123° Southeast 450 518 33,500 -1,927 Descending Kansas City Center
Wed 10:46:58 PM 37.9486 -88.2781 123° Southeast 448 516 31,900 -2,202 Descending Indianapolis Center
Wed 10:47:59 PM 37.8675 -88.1211 123° Southeast 445 512 29,500 -2,115 Descending Indianapolis Center
Wed 10:49:00 PM 37.8033 -87.9947 123° Southeast 431 496 27,600 -1,967 Descending Indianapolis Center
Wed 10:50:01 PM 37.7339 -87.8622 124° Southeast 434 499 25,500 -1,820 Descending Indianapolis Center
Wed 10:51:02 PM 37.6658 -87.7319 123° Southeast 438 504 23,900 -1,854 Descending Indianapolis Center
Wed 10:52:04 PM 37.5992 -87.6053 124° Southeast 432 497 21,700 -2,195 Descending Indianapolis Center
Wed 10:53:05 PM 37.5322 -87.4792 124° Southeast 430 495 19,400 -2,164 Descending Indianapolis Center
Wed 10:54:06 PM 37.4678 -87.3564 123° Southeast 420 483 17,300 -2,164 Descending Indianapolis Center
Wed 10:55:07 PM 37.4075 -87.2422 124° Southeast 391 450 15,000 -2,115 Descending Indianapolis Center
Wed 10:56:08 PM 37.3497 -87.1356 124° Southeast 370 426 13,000 -1,918 Descending Indianapolis Center
Wed 10:57:09 PM 37.2947 -87.0308 123° Southeast 359 413 11,100 -984 Descending Indianapolis Center
Wed 10:58:10 PM 37.2447 -86.9389 124° Southeast 324 373 11,000 -98 Descending Indianapolis Center
Wed 10:59:11 PM 37.1986 -86.8519 124° Southeast 302 348 10,900 -689 Descending Indianapolis Center
Wed 11:00:12 PM 37.1528 -86.7669 124° Southeast 295 339 9,600 -1,512 Descending Indianapolis Center
Wed 11:01:14 PM 37.1100 -86.6872 124° Southeast 275 316 7,800 -2,000 Descending Indianapolis Center
Wed 11:02:15 PM 37.0675 -86.6108 125° Southeast 271 312 5,500 -2,083 Descending Indianapolis Center
Wed 11:03:15 PM 37.0278 -86.5358 124° Southeast 259 298 3,600 -1,623 Descending Indianapolis Center
Wed 11:04:17 PM 36.9928 -86.4711 124° Southeast 232 267 2,200 -780 Descending Indianapolis Center
Wed 11:05:18 PM 36.9592 -86.4094 124° Southeast 220 253 2,000 -393 Descending Indianapolis Center
Wed 11:06:19 PM 36.9797 -86.3722 55° Northeast 174 200 1,400 -639 Descending Indianapolis Center
Wed 11:07:20 PM 36.9781 -86.4094 267° West 156 180 700 -689 Descending Indianapolis Center

Login

Don't have an account? Register now (free) for customized features, flight alerts, and more!